createdAt,value
2022-07-25T00:01:13.369Z,64.43
2022-07-25T00:03:42.258Z,64.18
2022-07-25T00:06:13.363Z,64.52
2022-07-25T00:08:45.722Z,64.04
2022-07-25T00:11:14.784Z,64.69
2022-07-25T00:13:43.134Z,64.61
2022-07-25T00:16:11.044Z,64.68
2022-07-25T00:18:38.879Z,64.27
2022-07-25T00:21:07.366Z,63.99
2022-07-25T00:23:35.158Z,64.26
2022-07-25T00:26:02.936Z,64.46
2022-07-25T00:28:32.474Z,64.19
2022-07-25T00:31:00.348Z,63.85
2022-07-25T00:33:28.221Z,63.50
2022-07-25T00:35:56.403Z,64.20
2022-07-25T00:38:39.041Z,64.49
2022-07-25T00:41:07.555Z,65.28
2022-07-25T00:43:36.769Z,65.45
2022-07-25T00:46:04.655Z,65.29
2022-07-25T00:48:33.453Z,65.02
2022-07-25T00:51:01.377Z,66.47
2022-07-25T00:53:29.722Z,68.01
2022-07-25T00:55:58.969Z,68.49
2022-07-25T00:58:26.846Z,68.20
2022-07-25T01:00:56.506Z,69.05
2022-07-25T01:03:24.422Z,68.66
2022-07-25T01:05:53.851Z,69.39
2022-07-25T01:08:23.505Z,69.41
2022-07-25T01:10:51.371Z,69.32
2022-07-25T01:13:19.578Z,69.42
2022-07-25T01:15:48.967Z,69.87
2022-07-25T01:18:18.405Z,70.30
2022-07-25T01:20:48.310Z,70.57
2022-07-25T01:23:16.098Z,70.00
2022-07-25T01:25:44.057Z,70.47
2022-07-25T01:28:12.191Z,69.52
2022-07-25T01:30:40.129Z,70.09
2022-07-25T01:33:07.942Z,70.25
2022-07-25T01:35:40.179Z,70.20
2022-07-25T01:38:12.277Z,70.77
2022-07-25T01:40:40.891Z,70.26
2022-07-25T01:43:09.410Z,70.36
2022-07-25T01:45:37.303Z,70.63
2022-07-25T01:48:05.999Z,70.27
2022-07-25T01:50:33.828Z,70.27
2022-07-25T01:53:01.564Z,70.42
2022-07-25T01:55:31.119Z,70.58
2022-07-25T01:58:00.260Z,70.28
2022-07-25T02:00:28.365Z,70.87
2022-07-25T02:03:10.397Z,70.72
2022-07-25T02:05:38.304Z,70.96
2022-07-25T02:08:06.541Z,70.97
2022-07-25T02:10:36.074Z,70.83
2022-07-25T02:13:05.098Z,71.26
2022-07-25T02:15:32.910Z,70.99
2022-07-25T02:18:01.228Z,71.19
2022-07-25T02:20:29.116Z,71.65
2022-07-25T02:22:56.791Z,71.19
2022-07-25T02:25:25.088Z,70.99
2022-07-25T02:27:54.195Z,70.94
2022-07-25T02:30:22.017Z,70.23
2022-07-25T02:32:50.199Z,69.44
2022-07-25T02:35:17.957Z,68.98
2022-07-25T02:37:45.782Z,68.13
2022-07-25T02:40:14.219Z,67.73
2022-07-25T02:42:42.685Z,67.27
2022-07-25T02:45:12.307Z,66.72
2022-07-25T02:47:40.061Z,66.47
2022-07-25T02:50:09.581Z,66.66
2022-07-25T02:52:42.675Z,66.12
2022-07-25T02:55:11.840Z,67.01
2022-07-25T02:57:39.679Z,67.95
2022-07-25T03:00:09.021Z,68.49
2022-07-25T03:02:38.558Z,68.54
2022-07-25T03:05:08.207Z,68.48
2022-07-25T03:07:36.015Z,68.30
2022-07-25T03:10:11.189Z,68.46
2022-07-25T03:12:40.070Z,68.74
2022-07-25T03:15:10.130Z,68.35
2022-07-25T03:17:40.299Z,68.65
2022-07-25T03:20:10.471Z,68.09
2022-07-25T03:22:38.878Z,67.87
2022-07-25T03:25:15.891Z,68.59
2022-07-25T03:27:50.001Z,67.94
2022-07-25T03:30:18.656Z,67.75
2022-07-25T03:32:48.207Z,67.78
2022-07-25T03:35:17.001Z,67.28
2022-07-25T03:37:45.696Z,67.16
2022-07-25T03:40:14.887Z,67.31
2022-07-25T03:42:44.203Z,66.92
2022-07-25T03:45:13.010Z,67.32
2022-07-25T03:47:41.034Z,66.78
2022-07-25T03:50:11.702Z,66.75
2022-07-25T03:52:40.671Z,66.28
2022-07-25T03:55:10.725Z,65.30
2022-07-25T03:57:39.073Z,64.43
2022-07-25T04:00:10.650Z,63.50
2022-07-25T04:02:38.648Z,61.32
2022-07-25T04:05:08.003Z,59.15
2022-07-25T04:07:38.349Z,57.91
2022-07-25T04:10:08.287Z,55.97
2022-07-25T04:12:36.339Z,53.86
2022-07-25T04:15:05.382Z,50.82
2022-07-25T04:17:33.432Z,49.56
2022-07-25T04:20:01.771Z,47.25
2022-07-25T04:22:29.767Z,45.16
2022-07-25T04:24:59.164Z,43.55
2022-07-25T04:27:27.127Z,42.08
2022-07-25T04:29:55.108Z,41.30
2022-07-25T04:32:23.795Z,40.21
2022-07-25T04:34:52.646Z,38.32
2022-07-25T04:37:20.960Z,37.98
2022-07-25T04:39:48.945Z,36.01
2022-07-25T04:42:18.667Z,35.84
2022-07-25T04:44:46.680Z,35.10
2022-07-25T04:47:14.993Z,33.93
2022-07-25T04:49:42.996Z,33.06
2022-07-25T04:52:11.005Z,32.49
2022-07-25T04:54:38.976Z,33.00
2022-07-25T04:57:07.360Z,32.06
2022-07-25T04:59:36.685Z,31.80
2022-07-25T05:02:05.354Z,31.80
2022-07-25T05:04:33.423Z,31.36
2022-07-25T05:07:03.968Z,31.82
2022-07-25T05:09:32.199Z,32.55
2022-07-25T05:12:00.681Z,32.67
2022-07-25T05:14:28.610Z,32.15
2022-07-25T05:16:58.433Z,31.70
2022-07-25T05:19:26.438Z,32.02
2022-07-25T05:21:54.977Z,31.08
2022-07-25T05:24:28.974Z,29.95
2022-07-25T05:26:57.625Z,29.28
2022-07-25T05:29:34.932Z,29.95
2022-07-25T05:32:05.127Z,32.12
2022-07-25T05:34:40.691Z,30.53
2022-07-25T05:37:14.411Z,31.53
2022-07-25T05:39:45.874Z,30.14
2022-07-25T05:42:14.277Z,31.20
2022-07-25T05:44:44.589Z,29.97
2022-07-25T05:47:21.088Z,29.68
2022-07-25T05:49:49.118Z,28.55
2022-07-25T05:52:17.629Z,28.44
2022-07-25T05:54:57.365Z,28.59
2022-07-25T05:57:25.909Z,28.86
2022-07-25T05:59:54.403Z,28.42
2022-07-25T06:02:26.625Z,28.77
2022-07-25T06:04:54.731Z,29.59
2022-07-25T06:07:23.128Z,29.83
2022-07-25T06:09:51.190Z,27.17
2022-07-25T06:12:20.235Z,29.00
2022-07-25T06:14:53.214Z,26.97
2022-07-25T06:17:21.943Z,26.10
2022-07-25T06:19:51.316Z,27.16
2022-07-25T06:22:20.274Z,27.09
2022-07-25T06:24:48.534Z,27.13
2022-07-25T06:27:21.008Z,26.38
2022-07-25T06:29:53.330Z,26.36
2022-07-25T06:32:22.138Z,25.73
2022-07-25T06:34:55.818Z,26.16
2022-07-25T06:37:24.866Z,24.03
2022-07-25T06:39:52.996Z,23.72
2022-07-25T06:42:23.232Z,23.03
2022-07-25T06:44:51.485Z,23.50
2022-07-25T06:47:19.942Z,22.20
2022-07-25T06:49:48.395Z,21.95
2022-07-25T06:52:18.153Z,21.09
2022-07-25T06:54:46.128Z,22.33
2022-07-25T06:57:15.048Z,20.05
2022-07-25T06:59:48.256Z,20.35
2022-07-25T07:02:17.059Z,21.15
2022-07-25T07:04:45.203Z,19.14
2022-07-25T07:07:13.720Z,18.12
2022-07-25T07:09:43.310Z,17.96
2022-07-25T07:12:11.870Z,19.03
2022-07-25T07:14:41.541Z,17.52
2022-07-25T07:17:09.574Z,18.54
2022-07-25T07:19:43.869Z,18.54
2022-07-25T07:22:11.885Z,19.88
2022-07-25T07:24:43.903Z,20.90
2022-07-25T07:27:12.397Z,20.09
2022-07-25T07:29:40.398Z,20.45
2022-07-25T07:32:09.067Z,19.81
2022-07-25T07:34:37.144Z,22.19
2022-07-25T07:37:05.214Z,18.70
2022-07-25T07:39:33.244Z,17.45
2022-07-25T07:42:03.098Z,17.28
2022-07-25T07:48:12.655Z,17.51
2022-07-25T07:50:41.153Z,16.84
2022-07-25T07:53:09.593Z,16.17
2022-07-25T07:55:45.506Z,15.51
2022-07-25T07:58:17.873Z,14.90
2022-07-25T08:00:47.680Z,15.09
2022-07-25T08:03:21.035Z,14.18
2022-07-25T08:05:51.842Z,14.13
2022-07-25T08:08:20.861Z,15.62
2022-07-25T08:10:50.063Z,14.61
2022-07-25T08:13:21.711Z,14.64
2022-07-25T08:19:30.769Z,15.21
2022-07-25T08:21:58.862Z,13.99
2022-07-25T08:24:26.850Z,12.74
2022-07-25T08:26:54.971Z,13.16
2022-07-25T08:29:28.264Z,13.30
2022-07-25T08:31:56.416Z,14.51
2022-07-25T08:34:24.622Z,14.89
2022-07-25T08:36:52.641Z,14.10
2022-07-25T08:39:21.099Z,14.34
2022-07-25T08:41:49.556Z,14.51
2022-07-25T08:44:21.886Z,13.91
2022-07-25T08:46:51.611Z,14.41
2022-07-25T08:49:20.292Z,17.08
2022-07-25T08:51:51.088Z,18.33
2022-07-25T08:54:20.400Z,17.63
2022-07-25T08:56:51.111Z,18.26
2022-07-25T08:59:19.573Z,16.98
2022-07-25T09:01:47.808Z,17.25
2022-07-25T09:04:18.481Z,18.55
2022-07-25T09:06:51.723Z,19.16
2022-07-25T09:09:20.634Z,18.66
2022-07-25T09:11:50.040Z,17.96
2022-07-25T09:14:18.550Z,19.05
2022-07-25T09:16:46.707Z,19.73
2022-07-25T09:19:19.935Z,19.78
2022-07-25T09:22:00.152Z,18.87
2022-07-25T09:24:29.043Z,18.77
2022-07-25T09:26:59.745Z,18.65
2022-07-25T09:29:30.133Z,18.58
2022-07-25T09:31:59.674Z,18.94
2022-07-25T09:34:35.172Z,18.76
2022-07-25T09:37:04.994Z,19.32
2022-07-25T09:39:45.880Z,18.82
2022-07-25T09:42:20.130Z,18.10
2022-07-25T09:45:15.414Z,16.33
2022-07-25T09:47:56.804Z,15.50
2022-07-25T09:50:30.829Z,14.81
2022-07-25T09:53:00.816Z,15.71
2022-07-25T09:55:29.826Z,15.48
2022-07-25T09:57:58.157Z,14.27
2022-07-25T10:00:28.509Z,13.41
2022-07-25T10:03:19.726Z,14.36
2022-07-25T10:06:10.083Z,14.27
2022-07-25T10:08:39.190Z,13.37
2022-07-25T10:11:09.639Z,13.59
2022-07-25T10:13:39.247Z,12.68
2022-07-25T10:16:17.351Z,13.36
2022-07-25T10:18:53.195Z,13.56
2022-07-25T10:21:27.696Z,12.11
2022-07-25T10:24:01.756Z,12.00
2022-07-25T10:26:31.200Z,13.10
2022-07-25T10:29:00.036Z,13.80
2022-07-25T10:31:36.606Z,13.77
2022-07-25T10:34:07.034Z,13.36
2022-07-25T10:36:48.486Z,13.13
2022-07-25T10:39:19.614Z,13.45
2022-07-25T10:41:54.078Z,14.54
2022-07-25T10:44:22.974Z,15.06
2022-07-25T10:46:51.105Z,14.15
2022-07-25T10:49:29.139Z,14.05
2022-07-25T10:52:04.421Z,13.35
2022-07-25T10:54:36.740Z,13.67
2022-07-25T10:57:07.362Z,14.41
2022-07-25T10:59:36.769Z,14.63
2022-07-25T11:02:07.290Z,14.64
2022-07-25T11:04:35.723Z,14.84
2022-07-25T11:07:12.856Z,14.02
2022-07-25T11:09:42.322Z,14.17
2022-07-25T11:12:15.602Z,14.66
2022-07-25T11:14:44.694Z,15.20
2022-07-25T11:17:15.861Z,14.30
2022-07-25T11:19:45.558Z,15.17
2022-07-25T11:22:17.981Z,15.99
2022-07-25T11:24:47.730Z,17.13
2022-07-25T11:27:23.652Z,18.78
2022-07-25T11:29:51.822Z,18.30
2022-07-25T11:32:20.879Z,18.03
2022-07-25T11:34:50.407Z,17.22
2022-07-25T11:37:21.203Z,16.64
2022-07-25T11:39:49.829Z,16.33
2022-07-25T11:42:20.688Z,15.92
2022-07-25T11:44:50.705Z,16.67
2022-07-25T11:47:28.105Z,16.29
2022-07-25T11:49:57.919Z,16.94
2022-07-25T11:52:31.549Z,17.51
2022-07-25T11:55:01.221Z,18.05
2022-07-25T11:57:31.155Z,16.75
2022-07-25T12:00:00.398Z,17.19
2022-07-25T12:02:32.598Z,16.91
2022-07-25T12:05:02.676Z,17.77
2022-07-25T12:07:46.905Z,18.67
2022-07-25T12:10:18.063Z,18.41
2022-07-25T12:12:49.069Z,17.90
2022-07-25T12:15:22.095Z,19.18
2022-07-25T12:17:51.431Z,19.98
2022-07-25T12:20:21.424Z,19.75
2022-07-25T12:22:53.543Z,19.28
2022-07-25T12:25:23.633Z,19.59
2022-07-25T12:27:53.966Z,19.59
2022-07-25T12:30:22.015Z,20.35
2022-07-25T12:32:50.786Z,19.89
2022-07-25T12:35:18.945Z,20.25
2022-07-25T12:37:47.940Z,20.82
2022-07-25T12:40:17.836Z,21.87
2022-07-25T12:42:47.237Z,21.49
2022-07-25T12:45:15.714Z,22.34
2022-07-25T12:47:46.151Z,23.16
2022-07-25T12:50:15.149Z,22.59
2022-07-25T12:52:44.230Z,24.17
2022-07-25T12:55:14.104Z,23.70
2022-07-25T12:57:44.428Z,23.18
2022-07-25T13:00:16.064Z,23.67
2022-07-25T13:02:45.349Z,24.08
2022-07-25T13:05:13.473Z,23.30
2022-07-25T13:07:42.082Z,24.60
2022-07-25T13:10:10.538Z,23.87
2022-07-25T13:12:39.082Z,24.04
2022-07-25T13:15:09.707Z,24.05
2022-07-25T13:17:38.392Z,24.48
2022-07-25T13:20:07.389Z,24.53
2022-07-25T13:22:36.015Z,24.20
2022-07-25T13:25:04.650Z,24.56
2022-07-25T13:27:32.742Z,24.89
2022-07-25T13:30:01.323Z,24.38
2022-07-25T13:32:31.919Z,25.08
2022-07-25T13:35:00.023Z,24.87
2022-07-25T13:37:28.310Z,24.89
2022-07-25T13:39:56.545Z,25.14
2022-07-25T13:42:24.852Z,25.69
2022-07-25T13:44:53.609Z,25.33
2022-07-25T13:47:26.904Z,25.42
2022-07-25T13:50:00.404Z,25.34
2022-07-25T13:52:28.490Z,24.83
2022-07-25T13:54:57.170Z,25.50
2022-07-25T13:57:25.343Z,25.61
2022-07-25T13:59:53.529Z,25.29
2022-07-25T14:02:22.219Z,25.25
2022-07-25T14:04:50.285Z,24.62
2022-07-25T14:07:19.867Z,25.02
2022-07-25T14:09:48.550Z,24.71
2022-07-25T14:12:16.667Z,24.63
2022-07-25T14:14:45.163Z,24.66
2022-07-25T14:17:13.522Z,24.97
2022-07-25T14:19:41.811Z,24.12
2022-07-25T14:22:10.404Z,23.96
2022-07-25T14:24:39.958Z,24.37
2022-07-25T14:27:08.011Z,25.06
2022-07-25T14:29:38.441Z,25.00
2022-07-25T14:32:07.910Z,24.63
2022-07-25T14:34:36.293Z,24.60
2022-07-25T14:37:06.460Z,23.73
2022-07-25T14:39:36.397Z,24.76
2022-07-25T14:42:06.770Z,23.57
2022-07-25T14:44:34.798Z,23.10
2022-07-25T14:47:09.015Z,22.42
2022-07-25T14:49:41.948Z,21.59
2022-07-25T14:52:10.098Z,21.20
2022-07-25T14:54:38.189Z,20.84
2022-07-25T14:57:09.223Z,20.48
2022-07-25T14:59:37.742Z,20.71
2022-07-25T15:02:06.309Z,21.14
2022-07-25T15:04:34.658Z,22.38
2022-07-25T15:07:02.809Z,21.95
2022-07-25T15:09:31.371Z,22.27
2022-07-25T15:11:59.464Z,21.62
2022-07-25T15:14:29.945Z,23.53
2022-07-25T15:16:58.282Z,23.48
2022-07-25T15:19:26.636Z,23.49
2022-07-25T15:21:55.272Z,22.71
2022-07-25T15:24:28.664Z,22.93
2022-07-25T15:26:57.640Z,22.75
2022-07-25T15:29:25.678Z,23.43
2022-07-25T15:31:55.221Z,23.69
2022-07-25T15:34:23.473Z,23.61
2022-07-25T15:36:52.260Z,24.48
2022-07-25T15:39:20.538Z,24.58
2022-07-25T15:41:49.140Z,23.90
2022-07-25T15:44:17.276Z,24.87
2022-07-25T15:46:46.519Z,25.37
2022-07-25T15:49:17.848Z,24.60
2022-07-25T15:55:32.957Z,25.26
2022-07-25T15:58:49.047Z,24.95
2022-07-25T16:05:06.658Z,24.65
2022-07-25T16:07:34.974Z,24.83
2022-07-25T16:10:03.024Z,23.91
2022-07-25T16:12:31.045Z,23.97
2022-07-25T16:14:59.030Z,23.95
2022-07-25T16:17:28.830Z,23.43
2022-07-25T16:19:57.051Z,24.69
2022-07-25T16:22:27.095Z,23.55
2022-07-25T16:24:55.082Z,25.21
2022-07-25T16:27:23.510Z,24.93
2022-07-25T16:29:53.049Z,24.50
2022-07-25T16:32:21.187Z,25.90
2022-07-25T16:34:49.452Z,25.44
2022-07-25T16:37:17.861Z,26.58
2022-07-25T16:39:47.293Z,25.28
2022-07-25T16:42:19.541Z,25.82
2022-07-25T16:44:48.688Z,26.41
2022-07-25T16:47:17.086Z,26.53
2022-07-25T16:49:45.169Z,27.32
2022-07-25T16:52:14.312Z,27.42
2022-07-25T16:54:42.528Z,27.58
2022-07-25T16:57:11.925Z,27.83
2022-07-25T16:59:40.273Z,27.53
2022-07-25T17:02:08.801Z,28.03
2022-07-25T17:04:37.680Z,28.01
2022-07-25T17:07:05.856Z,28.26
2022-07-25T17:09:33.859Z,27.83
2022-07-25T17:12:02.682Z,27.33
2022-07-25T17:14:32.390Z,27.27
2022-07-25T17:17:00.840Z,26.74
2022-07-25T17:19:33.839Z,26.76
2022-07-25T17:22:02.308Z,26.88
2022-07-25T17:24:30.304Z,26.96
2022-07-25T17:26:58.766Z,26.63
2022-07-25T17:29:27.443Z,26.69
2022-07-25T17:31:56.928Z,26.73
2022-07-25T17:34:26.703Z,27.05
2022-07-25T17:36:54.901Z,26.91
2022-07-25T17:39:23.023Z,27.14
2022-07-25T17:41:53.799Z,27.84
2022-07-25T17:44:21.792Z,28.05
2022-07-25T17:46:50.899Z,28.52
2022-07-25T17:49:21.709Z,28.39
2022-07-25T17:51:50.489Z,29.23
2022-07-25T17:54:18.560Z,28.91
2022-07-25T17:56:47.277Z,29.40
2022-07-25T17:59:15.824Z,29.07
2022-07-25T18:01:43.978Z,29.64
2022-07-25T18:04:12.409Z,29.62
2022-07-25T18:06:41.889Z,29.65
2022-07-25T18:09:10.524Z,30.11
2022-07-25T18:11:38.535Z,30.69
2022-07-25T18:14:07.077Z,30.32
2022-07-25T18:16:35.336Z,30.59
2022-07-25T18:19:03.442Z,30.85
2022-07-25T18:21:31.411Z,31.41
2022-07-25T18:24:01.261Z,31.58
2022-07-25T18:26:29.516Z,31.58
2022-07-25T18:28:57.988Z,31.70
2022-07-25T18:31:25.979Z,32.08
2022-07-25T18:33:54.520Z,32.92
2022-07-25T18:36:22.581Z,33.17
2022-07-25T18:38:54.214Z,33.30
2022-07-25T18:41:29.732Z,33.21
2022-07-25T18:43:58.765Z,33.54
2022-07-25T18:46:30.143Z,33.15
2022-07-25T18:49:00.094Z,34.03
2022-07-25T18:51:28.196Z,34.06
2022-07-25T18:53:56.728Z,33.41
2022-07-25T18:56:26.146Z,34.04
2022-07-25T18:58:54.690Z,34.77
2022-07-25T19:01:22.735Z,34.52
2022-07-25T19:03:51.266Z,34.54
2022-07-25T19:06:19.307Z,35.35
2022-07-25T19:08:48.386Z,35.67
2022-07-25T19:11:16.400Z,35.71
2022-07-25T19:13:50.694Z,35.70
2022-07-25T19:16:20.055Z,36.35
2022-07-25T19:18:48.286Z,50.21
2022-07-25T19:21:16.860Z,62.13
2022-07-25T19:23:50.557Z,74.58
2022-07-25T19:26:19.708Z,79.65
2022-07-25T19:28:50.194Z,83.70
2022-07-25T19:31:18.512Z,86.63
2022-07-25T19:33:47.340Z,87.07
2022-07-25T19:36:15.413Z,89.00
2022-07-25T19:38:43.894Z,88.21
2022-07-25T19:41:12.175Z,90.53
2022-07-25T19:43:40.628Z,92.10
2022-07-25T19:46:10.184Z,92.56
2022-07-25T19:48:38.691Z,90.64
2022-07-25T19:51:07.025Z,93.10
2022-07-25T19:53:35.643Z,90.93
2022-07-25T19:56:03.763Z,90.34
2022-07-25T19:58:35.404Z,89.72
2022-07-25T20:01:06.661Z,91.31
2022-07-25T20:03:36.249Z,91.68
2022-07-25T20:06:08.343Z,91.54
2022-07-25T20:08:36.934Z,92.73
2022-07-25T20:11:05.491Z,93.01
2022-07-25T20:13:33.520Z,92.53
2022-07-25T20:16:02.613Z,92.69
2022-07-25T20:18:30.849Z,92.59
2022-07-25T20:21:00.697Z,93.07
2022-07-25T20:23:28.861Z,91.43
2022-07-25T20:25:57.326Z,91.36
2022-07-25T20:28:25.675Z,92.26
2022-07-25T20:30:56.259Z,92.02
2022-07-25T20:33:27.155Z,92.43
2022-07-25T20:35:56.071Z,92.43
2022-07-25T20:38:28.837Z,92.29
2022-07-25T20:40:57.359Z,92.28
2022-07-25T20:43:25.862Z,91.78
2022-07-25T20:45:55.253Z,91.69
2022-07-25T20:48:23.702Z,91.89
2022-07-25T20:50:51.851Z,92.42
2022-07-25T20:53:20.175Z,92.81
2022-07-25T20:55:49.591Z,92.58
2022-07-25T20:58:18.138Z,92.87
2022-07-25T21:00:47.121Z,92.54
2022-07-25T21:03:17.065Z,93.05
2022-07-25T21:05:45.125Z,93.98
2022-07-25T21:08:13.521Z,94.32
2022-07-25T21:10:41.571Z,94.35
2022-07-25T21:13:10.989Z,94.47
2022-07-25T21:15:38.965Z,94.49
2022-07-25T21:18:07.233Z,94.64
2022-07-25T21:20:37.310Z,94.05
2022-07-25T21:23:06.578Z,93.09
2022-07-25T21:25:34.600Z,92.00
2022-07-25T21:28:03.076Z,91.78
2022-07-25T21:30:32.572Z,91.18
2022-07-25T21:33:00.969Z,91.93
2022-07-25T21:35:29.167Z,92.20
2022-07-25T21:37:59.077Z,92.18
2022-07-25T21:40:27.235Z,91.40
2022-07-25T21:42:55.962Z,91.20
2022-07-25T21:45:24.409Z,90.59
2022-07-25T21:47:54.331Z,89.95
2022-07-25T21:50:43.797Z,90.63
2022-07-25T21:53:14.018Z,90.35
2022-07-25T21:55:42.122Z,89.64
2022-07-25T21:58:10.683Z,88.98
2022-07-25T22:00:45.190Z,88.38
2022-07-25T22:03:15.490Z,87.73
2022-07-25T22:05:43.527Z,87.41
2022-07-25T22:08:11.970Z,86.86
2022-07-25T22:10:40.041Z,86.69
2022-07-25T22:13:13.033Z,87.00
2022-07-25T22:15:41.195Z,87.02
2022-07-25T22:18:09.786Z,86.58
2022-07-25T22:20:39.625Z,86.47
2022-07-25T22:23:08.430Z,86.17
2022-07-25T22:25:36.901Z,86.66
2022-07-25T22:28:05.030Z,86.72
2022-07-25T22:30:35.202Z,86.69
2022-07-25T22:33:03.284Z,86.64
2022-07-25T22:35:31.955Z,86.93
2022-07-25T22:38:01.365Z,86.95
2022-07-25T22:40:29.848Z,87.38
2022-07-25T22:42:58.058Z,86.89
2022-07-25T22:45:26.588Z,87.20
2022-07-25T22:47:54.663Z,87.31
2022-07-25T22:50:23.401Z,87.59
2022-07-25T22:52:51.425Z,87.98
2022-07-25T22:55:21.261Z,87.97
2022-07-25T22:57:49.729Z,88.41
2022-07-25T23:00:18.671Z,87.67
2022-07-25T23:02:46.729Z,86.28
2022-07-25T23:05:16.535Z,85.88
2022-07-25T23:07:44.563Z,85.67
2022-07-25T23:10:12.961Z,85.81
2022-07-25T23:12:42.345Z,83.86
2022-07-25T23:15:11.158Z,83.41
2022-07-25T23:17:39.181Z,82.10
2022-07-25T23:20:08.456Z,83.51
2022-07-25T23:22:37.037Z,82.52
2022-07-25T23:25:05.587Z,82.69
2022-07-25T23:27:35.021Z,82.07
2022-07-25T23:30:05.989Z,81.37
2022-07-25T23:32:34.753Z,81.35
2022-07-25T23:35:03.298Z,81.01
2022-07-25T23:37:31.299Z,80.46
2022-07-25T23:40:00.105Z,80.29
2022-07-25T23:42:28.349Z,79.38
2022-07-25T23:44:56.711Z,79.61
2022-07-25T23:47:40.574Z,79.54
2022-07-25T23:50:11.154Z,79.46
2022-07-25T23:52:39.187Z,79.86
2022-07-25T23:55:08.015Z,80.73
2022-07-25T23:57:35.990Z,81.13
